Weather at Le Roy Airport

Public forecast

Using degrees Fahrenheit for public forecast. Weather courtesy of forecast.io.

Closest aviation weather report (METAR) to Le Roy Airport

Closest report is Greater Rochester International Airport, 14.3 nm (26.4 km) NE. Retrieved 2020/10/30 15:54 UTC (56 minutes ago):

KROC 301554Z 01012KT 10SM OVC023 03/M02 A3008 RMK AO2 SLP194 T00281017

Closest aviation forecast (TAF) to Le Roy Airport

Closest forecast is Greater Rochester International Airport, 14.3 nm (26.4 km) NE. Retrieved 2020/10/30 12:33 UTC (4 hours ago):

TAF KROC 301129Z 3012/3112 03013KT P6SM OVC015 FM301600 02011KT P6SM OVC025 FM301800 36010KT P6SM OVC035 FM302000 33008KT P6SM BKN050 FM302300 30007KT P6SM SCT250